createdAt,value
2023-03-14T00:00:44.673Z,36.25
2023-03-14T00:01:45.980Z,43.34
2023-03-14T00:02:44.578Z,39.80
2023-03-14T00:03:44.706Z,47.37
2023-03-14T00:04:44.856Z,41.25
2023-03-14T00:05:44.765Z,45.12
2023-03-14T00:06:44.960Z,41.25
2023-03-14T00:07:44.947Z,47.37
2023-03-14T00:08:45.421Z,46.25
2023-03-14T00:09:44.591Z,46.57
2023-03-14T00:10:44.605Z,44.47
2023-03-14T00:11:45.285Z,43.67
2023-03-14T00:12:44.503Z,48.02
2023-03-14T00:13:44.638Z,50.11
2023-03-14T00:14:44.433Z,49.79
2023-03-14T00:15:44.434Z,52.85
2023-03-14T00:16:44.380Z,48.50
2023-03-14T00:17:44.427Z,52.21
2023-03-14T00:18:44.583Z,46.41
2023-03-14T00:19:44.887Z,48.50
2023-03-14T00:20:44.392Z,53.17
2023-03-14T00:21:44.378Z,51.08
2023-03-14T00:22:44.551Z,47.70
2023-03-14T00:23:44.319Z,50.27
2023-03-14T00:24:45.157Z,49.95
2023-03-14T00:25:44.658Z,49.47
2023-03-14T00:26:45.586Z,50.60
2023-03-14T00:27:44.256Z,51.88
2023-03-14T00:28:45.179Z,51.40
2023-03-14T00:29:44.278Z,49.31
2023-03-14T00:30:44.229Z,56.40
2023-03-14T00:31:44.319Z,51.56
2023-03-14T00:32:44.297Z,47.21
2023-03-14T00:33:44.245Z,49.31
2023-03-14T00:34:44.236Z,51.88
2023-03-14T00:35:44.277Z,49.15
2023-03-14T00:36:44.431Z,47.05
2023-03-14T00:37:44.291Z,48.34
2023-03-14T00:38:44.403Z,46.08
2023-03-14T00:39:44.204Z,45.44
2023-03-14T00:40:44.301Z,51.56
2023-03-14T00:41:45.444Z,48.66
2023-03-14T00:42:44.274Z,49.79
2023-03-14T00:43:44.173Z,51.08
2023-03-14T00:44:44.160Z,46.73
2023-03-14T00:45:44.401Z,47.53
2023-03-14T00:46:44.393Z,48.98
2023-03-14T00:47:44.478Z,47.21
2023-03-14T00:48:44.131Z,44.79
2023-03-14T00:49:44.286Z,47.21
2023-03-14T00:50:44.353Z,43.99
2023-03-14T00:51:45.697Z,46.41
2023-03-14T00:52:44.093Z,44.31
2023-03-14T00:53:44.227Z,45.12
2023-03-14T00:54:44.270Z,49.63
2023-03-14T00:55:44.384Z,43.83
2023-03-14T00:56:44.279Z,46.25
2023-03-14T00:57:44.562Z,53.17
2023-03-14T00:58:44.456Z,52.69
2023-03-14T00:59:43.960Z,48.66
2023-03-14T01:00:43.935Z,47.21
2023-03-14T01:01:44.077Z,45.60
2023-03-14T01:02:44.709Z,43.67
2023-03-14T01:03:44.341Z,46.41
2023-03-14T01:04:44.086Z,50.43
2023-03-14T01:05:44.152Z,49.63
2023-03-14T01:06:43.891Z,48.02
2023-03-14T01:07:44.020Z,49.15
2023-03-14T01:08:44.075Z,51.88
2023-03-14T01:09:44.704Z,47.53
2023-03-14T01:10:43.892Z,49.63
2023-03-14T01:11:43.870Z,50.27
2023-03-14T01:12:43.966Z,45.60
2023-03-14T01:13:45.852Z,43.67
2023-03-14T01:14:43.880Z,47.05
2023-03-14T01:15:44.865Z,46.89
2023-03-14T01:16:43.968Z,43.99
2023-03-14T01:17:44.105Z,43.83
2023-03-14T01:18:44.926Z,40.44
2023-03-14T01:19:43.856Z,43.51
2023-03-14T01:20:43.802Z,53.82
2023-03-14T01:21:43.875Z,44.63
2023-03-14T01:22:43.725Z,46.41
2023-03-14T01:23:43.790Z,45.76
2023-03-14T01:24:43.902Z,44.63
2023-03-14T01:25:43.752Z,44.47
2023-03-14T01:26:43.838Z,43.67
2023-03-14T01:27:44.082Z,41.73
2023-03-14T01:28:44.095Z,41.41
2023-03-14T01:29:44.681Z,44.15
2023-03-14T01:30:43.692Z,49.15
2023-03-14T01:31:43.793Z,51.24
2023-03-14T01:32:43.743Z,42.54
2023-03-14T01:33:43.689Z,42.38
2023-03-14T01:34:43.692Z,44.96
2023-03-14T01:35:43.812Z,43.18
2023-03-14T01:36:43.616Z,45.60
2023-03-14T01:37:43.676Z,43.83
2023-03-14T01:38:43.670Z,46.89
2023-03-14T01:39:43.564Z,46.41
2023-03-14T01:40:43.623Z,42.86
2023-03-14T01:41:43.875Z,39.32
2023-03-14T01:42:45.154Z,45.44
2023-03-14T01:43:43.564Z,43.34
2023-03-14T01:44:43.719Z,45.76
2023-03-14T01:45:43.795Z,48.50
2023-03-14T01:46:43.652Z,47.53
2023-03-14T01:47:43.741Z,49.15
2023-03-14T01:48:43.563Z,48.18
2023-03-14T01:49:43.495Z,36.58
2023-03-14T01:50:43.541Z,37.22
2023-03-14T01:51:43.644Z,49.31
2023-03-14T01:52:43.708Z,42.70
2023-03-14T01:53:43.595Z,45.44
2023-03-14T01:54:43.465Z,56.24
2023-03-14T01:55:43.795Z,45.92
2023-03-14T01:56:43.466Z,47.70
2023-03-14T01:57:44.035Z,44.96
2023-03-14T01:58:44.357Z,45.44
2023-03-14T01:59:43.345Z,47.53
2023-03-14T02:00:43.417Z,45.28
2023-03-14T02:01:44.273Z,49.95
2023-03-14T02:02:45.079Z,50.76
2023-03-14T02:03:45.545Z,50.76
2023-03-14T02:04:44.609Z,37.06
2023-03-14T02:05:43.565Z,41.57
2023-03-14T02:06:43.585Z,46.08
2023-03-14T02:07:43.337Z,48.66
2023-03-14T02:08:43.327Z,45.76
2023-03-14T02:09:43.634Z,49.47
2023-03-14T02:10:43.245Z,46.89
2023-03-14T02:11:43.318Z,46.25
2023-03-14T02:12:43.272Z,50.60
2023-03-14T02:13:43.647Z,53.50
2023-03-14T02:14:43.366Z,49.63
2023-03-14T02:15:43.232Z,45.12
2023-03-14T02:16:43.234Z,49.15
2023-03-14T02:17:43.211Z,45.92
2023-03-14T02:18:43.146Z,48.66
2023-03-14T02:19:43.258Z,51.56
2023-03-14T02:20:43.143Z,47.37
2023-03-14T02:21:43.189Z,47.05
2023-03-14T02:22:43.517Z,46.08
2023-03-14T02:23:43.727Z,45.76
2023-03-14T02:24:43.163Z,50.43
2023-03-14T02:25:43.135Z,41.89
2023-03-14T02:26:43.790Z,48.50
2023-03-14T02:27:43.100Z,50.60
2023-03-14T02:28:43.109Z,47.53
2023-03-14T02:29:43.105Z,52.37
2023-03-14T02:30:43.368Z,51.56
2023-03-14T02:31:43.183Z,50.92
2023-03-14T02:32:43.181Z,44.96
2023-03-14T02:33:42.986Z,53.01
2023-03-14T02:34:43.048Z,53.82
2023-03-14T02:35:43.108Z,53.82
2023-03-14T02:36:43.018Z,52.69
2023-03-14T02:37:43.122Z,51.88
2023-03-14T02:38:42.955Z,51.72
2023-03-14T02:39:43.027Z,43.99
2023-03-14T02:40:43.090Z,47.05
2023-03-14T02:41:42.948Z,51.72
2023-03-14T02:42:43.318Z,46.41
2023-03-14T02:43:43.109Z,39.80
2023-03-14T02:44:43.160Z,41.89
2023-03-14T02:45:43.265Z,41.09
2023-03-14T02:46:42.905Z,41.25
2023-03-14T02:47:43.248Z,41.73
2023-03-14T02:48:43.537Z,42.22
2023-03-14T02:49:43.214Z,46.73
2023-03-14T02:50:42.907Z,45.28
2023-03-14T02:51:42.893Z,47.70
2023-03-14T02:52:42.940Z,39.96
2023-03-14T02:53:42.856Z,38.99
2023-03-14T02:54:44.591Z,38.99
2023-03-14T02:55:42.884Z,49.95
2023-03-14T02:56:42.786Z,46.89
2023-03-14T02:57:42.787Z,45.60
2023-03-14T02:58:42.827Z,45.28
2023-03-14T02:59:43.372Z,47.53
2023-03-14T03:00:43.626Z,42.06
2023-03-14T03:01:44.018Z,40.61
2023-03-14T03:02:42.802Z,46.25
2023-03-14T03:03:42.867Z,50.76
2023-03-14T03:04:42.695Z,50.43
2023-03-14T03:05:42.689Z,50.27
2023-03-14T03:06:42.727Z,50.27
2023-03-14T03:07:42.678Z,46.89
2023-03-14T03:08:42.843Z,46.89
2023-03-14T03:09:42.941Z,51.08
2023-03-14T03:10:42.683Z,47.70
2023-03-14T03:11:42.622Z,47.37
2023-03-14T03:12:42.883Z,49.31
2023-03-14T03:13:43.075Z,50.92
2023-03-14T03:14:42.884Z,50.92
2023-03-14T03:15:42.647Z,41.25
2023-03-14T03:16:42.678Z,40.44
2023-03-14T03:17:43.319Z,49.95
2023-03-14T03:18:42.666Z,50.60
2023-03-14T03:19:42.651Z,50.76
2023-03-14T03:20:42.920Z,53.17
2023-03-14T03:21:42.651Z,47.21
2023-03-14T03:22:42.707Z,49.63
2023-03-14T03:23:42.812Z,46.08
2023-03-14T03:24:42.600Z,49.47
2023-03-14T03:25:42.494Z,51.88
2023-03-14T03:26:42.525Z,47.37
2023-03-14T03:27:42.521Z,52.69
2023-03-14T03:28:42.615Z,46.73
2023-03-14T03:29:42.496Z,48.66
2023-03-14T03:30:43.710Z,52.69
2023-03-14T03:31:42.831Z,45.60
2023-03-14T03:32:42.474Z,49.63
2023-03-14T03:33:42.498Z,49.15
2023-03-14T03:34:42.461Z,45.12
2023-03-14T03:35:42.485Z,51.08
2023-03-14T03:36:42.458Z,42.86
2023-03-14T03:37:42.651Z,46.25
2023-03-14T03:38:42.487Z,51.40
2023-03-14T03:39:42.501Z,50.92
2023-03-14T03:40:43.475Z,51.08
2023-03-14T03:41:42.345Z,51.08
2023-03-14T03:42:42.355Z,43.02
2023-03-14T03:43:42.714Z,48.50
2023-03-14T03:44:42.398Z,49.47
2023-03-14T03:45:42.377Z,50.43
2023-03-14T03:46:42.337Z,50.27
2023-03-14T03:47:42.350Z,44.63
2023-03-14T03:48:42.391Z,47.37
2023-03-14T03:49:43.210Z,52.37
2023-03-14T03:50:42.586Z,43.34
2023-03-14T03:51:42.351Z,43.83
2023-03-14T03:52:42.281Z,47.70
2023-03-14T03:53:42.483Z,47.70
2023-03-14T03:54:42.645Z,52.37
2023-03-14T03:55:42.289Z,48.66
2023-03-14T03:56:42.422Z,47.70
2023-03-14T03:57:42.222Z,51.24
2023-03-14T03:58:42.252Z,46.89
2023-03-14T03:59:42.309Z,50.92
2023-03-14T04:00:42.721Z,53.01
2023-03-14T04:01:42.179Z,52.85
2023-03-14T04:02:43.134Z,50.11
2023-03-14T04:03:43.170Z,51.08
2023-03-14T04:04:42.223Z,55.75
2023-03-14T04:05:42.141Z,52.37
2023-03-14T04:06:42.298Z,48.34
2023-03-14T04:07:42.095Z,54.46
2023-03-14T04:08:42.110Z,53.66
2023-03-14T04:09:42.100Z,53.17
2023-03-14T04:10:42.078Z,50.11
2023-03-14T04:11:42.109Z,53.17
2023-03-14T04:12:42.051Z,55.43
2023-03-14T04:13:42.056Z,53.66
2023-03-14T04:14:42.206Z,50.60
2023-03-14T04:15:42.143Z,55.75
2023-03-14T04:16:42.077Z,56.24
2023-03-14T04:17:42.038Z,52.69
2023-03-14T04:18:42.231Z,54.14
2023-03-14T04:19:42.041Z,53.66
2023-03-14T04:20:44.810Z,55.91
2023-03-14T04:21:42.090Z,56.07
2023-03-14T04:22:44.490Z,56.24
2023-03-14T04:23:42.402Z,56.40
2023-03-14T04:24:42.478Z,53.17
2023-03-14T04:25:43.053Z,53.98
2023-03-14T04:26:42.023Z,54.30
2023-03-14T04:27:42.329Z,56.24
2023-03-14T04:28:42.648Z,57.20
2023-03-14T04:29:42.280Z,55.75
2023-03-14T04:30:41.977Z,56.88
2023-03-14T04:31:41.897Z,56.40
2023-03-14T04:32:41.908Z,58.01
2023-03-14T04:33:44.954Z,56.72
2023-03-14T04:34:42.872Z,53.66
2023-03-14T04:35:41.879Z,55.91
2023-03-14T04:36:41.877Z,56.24
2023-03-14T04:37:41.838Z,55.27
2023-03-14T04:38:41.813Z,54.30
2023-03-14T04:39:41.900Z,56.24
2023-03-14T04:40:41.979Z,56.24
2023-03-14T04:41:41.786Z,57.85
2023-03-14T04:42:41.837Z,55.75
2023-03-14T04:43:41.790Z,54.79
2023-03-14T04:44:42.004Z,56.24
2023-03-14T04:45:42.818Z,57.04
2023-03-14T04:46:41.780Z,56.24
2023-03-14T04:47:42.507Z,57.69
2023-03-14T04:48:41.740Z,57.85
2023-03-14T04:49:42.026Z,58.01
2023-03-14T04:50:41.696Z,57.69
2023-03-14T04:51:41.675Z,54.30
2023-03-14T04:52:42.337Z,59.30
2023-03-14T04:53:42.137Z,59.62
2023-03-14T04:54:41.684Z,57.85
2023-03-14T04:55:41.797Z,53.50
2023-03-14T04:56:41.700Z,59.62
2023-03-14T04:57:41.722Z,57.52
2023-03-14T04:58:41.680Z,57.04
2023-03-14T04:59:41.685Z,53.17
2023-03-14T05:00:41.609Z,52.85
2023-03-14T05:01:42.427Z,56.88
2023-03-14T05:02:41.758Z,56.88
2023-03-14T05:03:41.575Z,58.65
2023-03-14T05:04:43.588Z,53.50
2023-03-14T05:05:41.605Z,54.46
2023-03-14T05:06:41.579Z,53.66
2023-03-14T05:07:41.555Z,55.59
2023-03-14T05:08:43.480Z,57.36
2023-03-14T05:09:41.550Z,58.49
2023-03-14T05:10:41.650Z,55.75
2023-03-14T05:11:41.580Z,57.36
2023-03-14T05:12:42.236Z,54.62
2023-03-14T05:13:41.635Z,56.88
2023-03-14T05:14:41.795Z,56.88
2023-03-14T05:15:41.765Z,56.40
2023-03-14T05:16:42.408Z,59.62
2023-03-14T05:17:41.730Z,59.62
2023-03-14T05:18:41.622Z,57.85
2023-03-14T05:19:41.481Z,58.17
2023-03-14T05:20:41.570Z,58.33
2023-03-14T05:21:41.500Z,57.85
2023-03-14T05:22:41.444Z,56.24
2023-03-14T05:23:41.559Z,58.65
2023-03-14T05:24:41.511Z,58.65
2023-03-14T05:25:41.467Z,59.30
2023-03-14T05:26:41.322Z,58.81
2023-03-14T05:27:41.781Z,59.30
2023-03-14T05:28:41.319Z,59.14
2023-03-14T05:29:41.311Z,58.33
2023-03-14T05:30:41.431Z,57.04
2023-03-14T05:31:41.414Z,59.30
2023-03-14T05:32:41.387Z,59.62
2023-03-14T05:33:41.989Z,61.07
2023-03-14T05:34:41.455Z,62.84
2023-03-14T05:35:41.462Z,60.91
2023-03-14T05:36:41.230Z,60.59
2023-03-14T05:37:42.941Z,61.07
2023-03-14T05:38:41.403Z,59.14
2023-03-14T05:39:44.265Z,60.59
2023-03-14T05:40:41.440Z,58.81
2023-03-14T05:41:42.399Z,60.59
2023-03-14T05:42:41.147Z,61.55
2023-03-14T05:43:41.597Z,60.59
2023-03-14T05:44:41.191Z,60.26
2023-03-14T05:45:41.205Z,59.46
2023-03-14T05:46:41.142Z,61.39
2023-03-14T05:47:41.243Z,61.23
2023-03-14T05:48:41.094Z,60.75
2023-03-14T05:49:41.686Z,58.49
2023-03-14T05:50:41.254Z,60.26
2023-03-14T05:51:41.230Z,58.49
2023-03-14T05:52:41.083Z,60.59
2023-03-14T05:53:41.580Z,60.42
2023-03-14T05:54:41.576Z,59.14
2023-03-14T05:55:41.106Z,59.94
2023-03-14T05:56:41.054Z,61.39
2023-03-14T05:57:40.986Z,60.91
2023-03-14T05:58:41.234Z,60.42
2023-03-14T05:59:41.212Z,58.65
2023-03-14T06:00:41.027Z,58.65
2023-03-14T06:01:40.986Z,59.94
2023-03-14T06:02:41.065Z,60.26
2023-03-14T06:03:41.271Z,56.24
2023-03-14T06:04:40.950Z,58.33
2023-03-14T06:05:40.986Z,60.59
2023-03-14T06:06:41.083Z,58.65
2023-03-14T06:07:40.947Z,58.17
2023-03-14T06:08:40.891Z,58.49
2023-03-14T06:09:41.005Z,60.75
2023-03-14T06:10:40.989Z,59.14
2023-03-14T06:11:40.921Z,60.10
2023-03-14T06:12:40.893Z,61.39
2023-03-14T06:13:40.965Z,60.10
2023-03-14T06:14:40.880Z,58.49
2023-03-14T06:15:40.914Z,59.94
2023-03-14T06:33:13.429Z,58.81
2023-03-14T06:34:13.325Z,60.42
2023-03-14T06:35:22.377Z,61.71
2023-03-14T06:36:13.340Z,60.42
2023-03-14T06:37:13.283Z,61.23
2023-03-14T06:38:13.357Z,60.75
2023-03-14T06:39:13.254Z,61.87
2023-03-14T06:40:14.497Z,60.91
2023-03-14T06:41:14.430Z,60.59
2023-03-14T06:42:17.272Z,59.94
2023-03-14T06:43:14.516Z,60.75
2023-03-14T06:44:14.394Z,60.59
2023-03-14T06:45:14.599Z,60.42
2023-03-14T06:46:14.977Z,59.62
2023-03-14T06:47:14.409Z,60.91
2023-03-14T06:48:14.931Z,59.62
2023-03-14T06:49:14.357Z,60.26
2023-03-14T06:50:14.611Z,61.87
2023-03-14T06:51:14.449Z,59.14
2023-03-14T06:52:15.030Z,61.39
2023-03-14T06:53:14.323Z,60.91
2023-03-14T06:54:14.337Z,60.42
2023-03-14T06:55:14.348Z,59.78
2023-03-14T06:56:14.650Z,60.26
2023-03-14T06:57:15.010Z,61.23
2023-03-14T06:58:14.620Z,60.10
2023-03-14T06:59:14.254Z,59.78
2023-03-14T07:00:14.555Z,58.81
2023-03-14T07:01:14.368Z,60.91
2023-03-14T07:02:14.310Z,57.85
2023-03-14T07:03:14.244Z,59.62
2023-03-14T07:04:14.244Z,61.87
2023-03-14T07:05:14.247Z,60.75
2023-03-14T07:06:14.163Z,59.94
2023-03-14T07:07:14.275Z,60.10
2023-03-14T07:08:14.243Z,62.20
2023-03-14T07:09:14.144Z,60.42
2023-03-14T07:10:14.253Z,60.75
2023-03-14T07:11:14.197Z,59.62
2023-03-14T07:12:14.103Z,58.33
2023-03-14T07:13:14.089Z,59.30
2023-03-14T07:14:14.110Z,58.65
2023-03-14T07:15:19.305Z,56.88
2023-03-14T07:16:16.228Z,58.33
2023-03-14T07:17:14.334Z,59.62
2023-03-14T07:18:14.106Z,58.17
2023-03-14T07:19:14.733Z,59.78
2023-03-14T07:20:14.218Z,58.49
2023-03-14T07:21:14.122Z,58.81
2023-03-14T07:22:14.093Z,58.81
2023-03-14T07:23:14.303Z,58.81
2023-03-14T07:24:14.238Z,58.81
2023-03-14T07:25:14.145Z,59.14
2023-03-14T07:26:13.995Z,58.81
2023-03-14T07:27:14.017Z,59.30
2023-03-14T07:28:13.955Z,58.65
2023-03-14T07:29:13.959Z,61.39
2023-03-14T07:30:13.923Z,59.78
2023-03-14T07:31:14.129Z,59.62
2023-03-14T07:32:14.028Z,60.42
2023-03-14T07:33:13.925Z,58.17
2023-03-14T07:34:13.901Z,57.36
2023-03-14T07:35:14.949Z,56.72
2023-03-14T07:36:13.992Z,58.65
2023-03-14T07:37:13.886Z,58.17
2023-03-14T07:38:13.821Z,53.66
2023-03-14T07:39:13.889Z,59.62
2023-03-14T07:40:13.821Z,60.10
2023-03-14T07:41:13.878Z,58.65
2023-03-14T07:42:13.823Z,59.94
2023-03-14T07:43:13.800Z,59.46
2023-03-14T07:44:14.055Z,59.94
2023-03-14T07:45:13.819Z,59.30
2023-03-14T07:46:13.897Z,59.78
2023-03-14T07:47:13.766Z,58.17
2023-03-14T07:48:13.806Z,56.88
2023-03-14T07:49:13.773Z,59.14
2023-03-14T07:50:13.751Z,58.81
2023-03-14T07:51:13.855Z,58.49
2023-03-14T07:52:14.027Z,59.30
2023-03-14T07:53:13.658Z,56.24
2023-03-14T07:54:13.733Z,58.33
2023-03-14T07:55:13.708Z,58.33
2023-03-14T07:56:13.741Z,57.36
2023-03-14T07:57:28.484Z,60.10
2023-03-14T07:58:13.753Z,58.97
2023-03-14T07:59:13.605Z,60.42
2023-03-14T08:00:15.539Z,59.94
2023-03-14T08:01:14.624Z,57.85
2023-03-14T08:02:13.585Z,56.40
2023-03-14T08:03:13.806Z,57.36
2023-03-14T08:04:13.679Z,57.85
2023-03-14T08:05:13.589Z,60.91
2023-03-14T08:06:13.663Z,60.26
2023-03-14T08:07:13.594Z,60.59
2023-03-14T08:08:13.532Z,59.14
2023-03-14T08:09:13.496Z,58.17
2023-03-14T08:10:13.502Z,58.01
2023-03-14T08:11:15.303Z,59.14
2023-03-14T08:12:13.502Z,59.14
2023-03-14T08:13:13.632Z,60.42
2023-03-14T08:14:13.484Z,57.85
2023-03-14T08:15:13.621Z,56.56
2023-03-14T08:16:14.438Z,58.33
2023-03-14T08:17:13.414Z,58.17
2023-03-14T08:18:13.448Z,61.23
2023-03-14T08:19:13.363Z,60.59
2023-03-14T08:20:13.415Z,59.78
2023-03-14T08:21:13.433Z,59.78
2023-03-14T08:22:13.376Z,58.17
2023-03-14T08:23:13.453Z,59.94
2023-03-14T08:24:13.354Z,57.20
2023-03-14T08:25:13.360Z,57.52
2023-03-14T08:26:13.345Z,57.69
2023-03-14T08:27:13.302Z,56.24
2023-03-14T08:28:13.280Z,57.85
2023-03-14T08:29:13.298Z,57.69
2023-03-14T08:30:13.321Z,57.69
2023-03-14T08:31:13.470Z,57.04
2023-03-14T08:32:13.338Z,59.46
2023-03-14T08:33:13.295Z,61.23
2023-03-14T08:34:13.251Z,58.01
2023-03-14T08:35:13.224Z,59.94
2023-03-14T08:36:13.303Z,56.88
2023-03-14T08:37:25.278Z,56.88
2023-03-14T08:38:15.226Z,58.01
2023-03-14T08:39:13.268Z,56.24
2023-03-14T08:40:13.219Z,60.42
2023-03-14T08:41:13.154Z,58.17
2023-03-14T08:42:13.130Z,59.62
2023-03-14T08:43:13.338Z,59.30
2023-03-14T08:44:13.201Z,60.75
2023-03-14T08:45:13.139Z,56.88
2023-03-14T08:46:13.164Z,55.75
2023-03-14T08:47:13.188Z,56.56
2023-03-14T08:48:13.154Z,56.40
2023-03-14T08:49:13.139Z,56.88
2023-03-14T08:50:16.032Z,56.88
2023-03-14T08:51:14.100Z,55.59
2023-03-14T08:52:13.096Z,55.91
2023-03-14T08:53:13.058Z,58.65
2023-03-14T08:54:13.028Z,56.24
2023-03-14T08:55:13.147Z,50.43
2023-03-14T08:56:13.036Z,50.60
2023-03-14T08:57:13.020Z,56.40
2023-03-14T08:58:12.972Z,54.46
2023-03-14T08:59:12.981Z,56.88
2023-03-14T09:00:13.213Z,57.20
2023-03-14T09:01:13.188Z,58.97
2023-03-14T09:02:13.573Z,56.72
2023-03-14T09:03:14.061Z,56.07
2023-03-14T09:04:13.004Z,55.11
2023-03-14T09:05:12.925Z,57.36
2023-03-14T09:06:13.186Z,56.72
2023-03-14T09:07:12.954Z,58.81
2023-03-14T09:08:12.926Z,59.30
2023-03-14T09:09:12.857Z,56.88
2023-03-14T09:10:12.975Z,58.33
2023-03-14T09:11:12.893Z,57.85
2023-03-14T09:12:12.992Z,57.69
2023-03-14T09:13:12.906Z,59.78
2023-03-14T09:14:12.845Z,55.91
2023-03-14T09:15:12.936Z,55.43
2023-03-14T09:16:13.275Z,57.36
2023-03-14T09:17:12.955Z,56.72
2023-03-14T09:18:12.840Z,56.40
2023-03-14T09:19:12.790Z,55.59
2023-03-14T09:20:12.832Z,57.20
2023-03-14T09:21:12.833Z,58.81
2023-03-14T09:22:12.772Z,55.43
2023-03-14T09:23:12.763Z,55.75
2023-03-14T09:24:12.893Z,57.20
2023-03-14T09:25:12.788Z,57.52
2023-03-14T09:26:12.745Z,58.81
2023-03-14T09:27:12.750Z,55.59
2023-03-14T09:28:12.807Z,52.69
2023-03-14T09:29:12.689Z,53.66
2023-03-14T09:30:12.802Z,55.75
2023-03-14T09:31:13.013Z,57.85
2023-03-14T09:32:12.651Z,58.81
2023-03-14T09:33:12.685Z,59.46
2023-03-14T09:34:12.627Z,57.85
2023-03-14T09:35:12.810Z,57.69
2023-03-14T09:36:12.715Z,56.40
2023-03-14T09:37:12.602Z,56.72
2023-03-14T09:38:12.614Z,55.91
2023-03-14T09:39:12.599Z,56.88
2023-03-14T09:40:12.687Z,58.97
2023-03-14T09:41:12.606Z,53.66
2023-03-14T09:42:12.545Z,54.46
2023-03-14T09:43:12.557Z,55.27
2023-03-14T09:44:12.585Z,56.07
2023-03-14T09:45:12.502Z,57.36
2023-03-14T09:46:12.560Z,55.75
2023-03-14T09:47:12.593Z,53.82
2023-03-14T09:48:12.610Z,56.88
2023-03-14T09:49:12.477Z,56.56
2023-03-14T09:50:12.470Z,53.17
2023-03-14T09:51:12.442Z,54.79
2023-03-14T09:52:12.504Z,55.11
2023-03-14T09:53:12.643Z,58.17
2023-03-14T09:54:12.443Z,54.46
2023-03-14T09:55:12.464Z,56.72
2023-03-14T09:56:12.451Z,54.62
2023-03-14T09:57:12.408Z,56.72
2023-03-14T09:58:12.429Z,54.62
2023-03-14T09:59:12.353Z,55.43
2023-03-14T10:00:12.396Z,57.69
2023-03-14T10:01:12.379Z,53.66
2023-03-14T10:02:12.728Z,57.20
2023-03-14T10:03:12.515Z,53.66
2023-03-14T10:04:12.309Z,52.05
2023-03-14T10:05:13.367Z,56.88
2023-03-14T10:06:12.426Z,57.36
2023-03-14T10:07:12.345Z,55.75
2023-03-14T10:08:12.301Z,58.97
2023-03-14T10:09:12.360Z,54.14
2023-03-14T10:10:12.320Z,54.79
2023-03-14T10:11:12.334Z,56.24
2023-03-14T10:12:12.286Z,55.59
2023-03-14T10:13:12.281Z,53.98
2023-03-14T10:14:12.305Z,59.46
2023-03-14T10:15:12.202Z,61.55
2023-03-14T10:16:12.224Z,58.65
2023-03-14T10:17:12.249Z,57.20
2023-03-14T10:18:12.137Z,59.14
2023-03-14T10:19:12.240Z,55.11
2023-03-14T10:20:12.182Z,56.56
2023-03-14T10:21:12.154Z,58.33
2023-03-14T10:22:12.248Z,59.30
2023-03-14T10:23:12.144Z,57.85
2023-03-14T10:24:12.123Z,56.07
2023-03-14T10:25:12.123Z,53.66
2023-03-14T10:26:12.121Z,55.75
2023-03-14T10:27:12.153Z,59.30
2023-03-14T10:28:12.158Z,59.94
2023-03-14T10:29:12.073Z,57.36
2023-03-14T10:30:12.166Z,59.62
2023-03-14T10:31:12.163Z,58.33
2023-03-14T10:32:12.139Z,57.36
2023-03-14T10:33:12.054Z,59.94
2023-03-14T10:34:12.088Z,57.69
2023-03-14T10:35:12.320Z,58.81
2023-03-14T10:36:14.324Z,57.85
2023-03-14T10:37:13.072Z,55.27
2023-03-14T10:38:12.159Z,56.07
2023-03-14T10:39:12.418Z,56.07
2023-03-14T10:40:12.380Z,57.36
2023-03-14T10:41:12.022Z,58.65
2023-03-14T10:42:12.157Z,60.42
2023-03-14T10:43:13.120Z,55.91
2023-03-14T10:44:12.172Z,55.75
2023-03-14T10:45:12.216Z,55.91
2023-03-14T10:46:11.961Z,59.94
2023-03-14T10:47:12.224Z,58.81
2023-03-14T10:48:12.214Z,55.91
2023-03-14T10:49:12.074Z,58.65
2023-03-14T10:50:11.870Z,57.04
2023-03-14T10:51:12.080Z,57.04
2023-03-14T10:52:11.907Z,58.49
2023-03-14T10:53:11.987Z,59.62
2023-03-14T10:54:11.896Z,60.42
2023-03-14T10:55:11.898Z,60.42
2023-03-14T10:56:11.846Z,59.78
2023-03-14T10:57:11.838Z,58.65
2023-03-14T10:58:11.844Z,59.46
2023-03-14T10:59:11.875Z,61.55
2023-03-14T11:00:11.791Z,58.97
2023-03-14T11:01:11.821Z,60.26
2023-03-14T11:02:13.810Z,57.04
2023-03-14T11:03:11.856Z,57.52
2023-03-14T11:04:11.723Z,54.79
2023-03-14T11:05:11.749Z,55.75
2023-03-14T11:06:11.831Z,55.91
2023-03-14T11:07:11.750Z,59.46
2023-03-14T11:08:11.766Z,57.85
2023-03-14T11:09:11.707Z,57.20
2023-03-14T11:10:12.273Z,58.81
2023-03-14T11:11:11.643Z,58.65
2023-03-14T11:12:11.673Z,54.95
2023-03-14T11:13:11.642Z,57.69
2023-03-14T11:14:12.144Z,59.30
2023-03-14T11:15:11.755Z,59.78
2023-03-14T11:16:11.661Z,59.46
2023-03-14T11:17:11.871Z,59.46
2023-03-14T11:18:11.587Z,57.69
2023-03-14T11:19:11.677Z,57.69
2023-03-14T11:20:11.575Z,60.59
2023-03-14T11:21:11.593Z,57.52
2023-03-14T11:22:11.616Z,57.36
2023-03-14T11:23:11.585Z,57.69
2023-03-14T11:24:11.550Z,56.56
2023-03-14T11:25:11.592Z,59.30
2023-03-14T11:26:11.521Z,56.88
2023-03-14T11:27:11.718Z,57.36
2023-03-14T11:28:12.070Z,56.88
2023-03-14T11:29:11.490Z,57.36
2023-03-14T11:30:11.494Z,56.56
2023-03-14T11:31:11.523Z,55.27
2023-03-14T11:32:11.497Z,55.75
2023-03-14T11:33:11.869Z,57.20
2023-03-14T11:34:11.416Z,55.43
2023-03-14T11:35:11.576Z,59.46
2023-03-14T11:36:11.512Z,54.30
2023-03-14T11:37:11.423Z,59.30
2023-03-14T11:38:11.724Z,59.14
2023-03-14T11:39:11.472Z,58.65
2023-03-14T11:40:11.459Z,58.49
2023-03-14T11:41:11.368Z,58.01
2023-03-14T11:42:11.368Z,59.14
2023-03-14T11:43:11.602Z,58.81
2023-03-14T11:44:11.384Z,57.85
2023-03-14T11:45:11.379Z,61.71
2023-03-14T11:46:11.686Z,60.59
2023-03-14T11:47:11.815Z,57.85
2023-03-14T11:48:11.453Z,57.52
2023-03-14T11:49:11.659Z,60.26
2023-03-14T11:53:25.801Z,61.39
2023-03-14T11:54:25.653Z,60.75
2023-03-14T11:55:25.492Z,61.71
2023-03-14T11:56:25.428Z,60.75
2023-03-14T11:57:25.496Z,60.91
2023-03-14T11:58:25.393Z,61.39
2023-03-14T11:59:25.393Z,60.26
2023-03-14T12:00:25.542Z,61.23
2023-03-14T12:01:25.451Z,61.39
2023-03-14T12:02:25.444Z,60.91
2023-03-14T12:03:25.381Z,61.71
2023-03-14T12:04:25.392Z,61.87
2023-03-14T12:05:25.310Z,61.87
2023-03-14T12:06:25.736Z,60.91
2023-03-14T12:07:25.306Z,60.59
2023-03-14T12:08:26.533Z,59.94
2023-03-14T12:09:26.468Z,63.49
2023-03-14T12:10:26.787Z,60.91
2023-03-14T12:11:26.516Z,60.91
2023-03-14T12:12:26.579Z,60.75
2023-03-14T12:13:26.471Z,62.52
2023-03-14T12:14:26.465Z,62.84
2023-03-14T12:15:26.479Z,61.87
2023-03-14T12:16:26.505Z,64.29
2023-03-14T12:17:26.507Z,63.33
2023-03-14T12:18:26.468Z,61.07
2023-03-14T12:19:26.382Z,64.13
2023-03-14T12:20:26.517Z,63.81
2023-03-14T12:21:26.630Z,66.23
2023-03-14T12:22:26.355Z,64.13
2023-03-14T12:23:26.644Z,60.75
2023-03-14T12:24:26.439Z,65.58
2023-03-14T12:25:26.519Z,63.81
2023-03-14T12:26:26.360Z,63.97
2023-03-14T12:27:26.357Z,64.29
2023-03-14T12:29:00.497Z,63.97
2023-03-14T12:29:26.797Z,63.65
2023-03-14T12:30:26.547Z,65.90
2023-03-14T12:31:26.279Z,62.68
2023-03-14T12:32:26.322Z,63.16
2023-03-14T12:33:26.262Z,65.26
2023-03-14T12:34:26.261Z,67.35
2023-03-14T12:35:26.383Z,61.55
2023-03-14T12:36:26.201Z,62.36
2023-03-14T12:37:26.483Z,63.33
2023-03-14T12:38:26.603Z,61.23
2023-03-14T12:39:26.232Z,65.90
2023-03-14T12:40:27.485Z,62.36
2023-03-14T12:41:26.688Z,62.84
2023-03-14T12:42:29.685Z,62.84
2023-03-14T12:43:26.343Z,61.07
2023-03-14T12:44:26.382Z,62.20
2023-03-14T12:45:26.763Z,64.45
2023-03-14T12:46:27.940Z,63.33
2023-03-14T12:47:26.415Z,64.94
2023-03-14T12:48:26.352Z,60.10
2023-03-14T12:49:26.380Z,59.46
2023-03-14T12:50:26.116Z,61.39
2023-03-14T12:51:26.362Z,63.33
2023-03-14T12:52:26.325Z,60.26
2023-03-14T12:53:26.502Z,64.29
2023-03-14T12:54:26.302Z,62.68
2023-03-14T12:55:26.665Z,65.74
2023-03-14T12:56:26.125Z,62.36
2023-03-14T12:57:26.269Z,61.55
2023-03-14T12:58:26.449Z,62.68
2023-03-14T12:59:26.727Z,62.20
2023-03-14T13:00:26.776Z,63.97
2023-03-14T13:01:26.337Z,62.68
2023-03-14T13:02:26.723Z,60.91
2023-03-14T13:03:26.208Z,64.45
2023-03-14T13:04:36.946Z,64.45
2023-03-14T13:05:28.031Z,64.13
2023-03-14T13:06:26.431Z,61.87
2023-03-14T13:07:25.969Z,60.91
2023-03-14T13:08:26.109Z,61.55
2023-03-14T13:09:25.891Z,60.59
2023-03-14T13:10:26.772Z,59.30
2023-03-14T13:11:25.972Z,62.20
2023-03-14T13:12:26.223Z,63.65